sensor_id;sensor_type;location;lat;lon;timestamp;P1;durP1;ratioP1;P2;durP2;ratioP2
44636;SDS011;30343;0.000;0.000;2022-08-19T00:01:40;14.32;;;12.23;;
44636;SDS011;30343;0.000;0.000;2022-08-19T00:04:28;14.30;;;12.80;;
44636;SDS011;30343;0.000;0.000;2022-08-19T00:07:19;14.60;;;13.05;;
44636;SDS011;30343;0.000;0.000;2022-08-19T00:10:06;14.70;;;12.93;;
44636;SDS011;30343;0.000;0.000;2022-08-19T00:12:51;15.45;;;13.85;;
44636;SDS011;30343;0.000;0.000;2022-08-19T00:15:35;14.40;;;12.90;;
44636;SDS011;30343;0.000;0.000;2022-08-19T00:18:28;13.20;;;11.80;;
44636;SDS011;30343;0.000;0.000;2022-08-19T00:21:12;14.32;;;12.60;;
44636;SDS011;30343;0.000;0.000;2022-08-19T00:23:58;17.80;;;14.07;;
44636;SDS011;30343;0.000;0.000;2022-08-19T00:26:45;14.90;;;13.23;;
44636;SDS011;30343;0.000;0.000;2022-08-19T00:29:29;14.85;;;13.23;;
44636;SDS011;30343;0.000;0.000;2022-08-19T00:32:14;15.05;;;13.45;;
44636;SDS011;30343;0.000;0.000;2022-08-19T00:34:58;17.75;;;13.00;;
44636;SDS011;30343;0.000;0.000;2022-08-19T00:37:44;14.80;;;13.27;;
44636;SDS011;30343;0.000;0.000;2022-08-19T00:40:31;15.93;;;13.70;;
44636;SDS011;30343;0.000;0.000;2022-08-19T00:43:22;15.85;;;14.23;;
44636;SDS011;30343;0.000;0.000;2022-08-19T00:46:08;15.27;;;13.68;;
44636;SDS011;30343;0.000;0.000;2022-08-19T00:48:53;16.55;;;14.60;;
44636;SDS011;30343;0.000;0.000;2022-08-19T00:51:38;15.80;;;14.13;;
44636;SDS011;30343;0.000;0.000;2022-08-19T00:54:22;16.95;;;15.15;;
44636;SDS011;30343;0.000;0.000;2022-08-19T00:57:08;16.90;;;15.23;;
44636;SDS011;30343;0.000;0.000;2022-08-19T01:00:01;17.38;;;15.05;;
44636;SDS011;30343;0.000;0.000;2022-08-19T01:02:50;17.42;;;15.15;;
44636;SDS011;30343;0.000;0.000;2022-08-19T01:05:36;17.80;;;15.63;;
44636;SDS011;30343;0.000;0.000;2022-08-19T01:08:23;18.80;;;16.92;;
44636;SDS011;30343;0.000;0.000;2022-08-19T01:11:09;19.42;;;17.42;;
44636;SDS011;30343;0.000;0.000;2022-08-19T01:13:55;20.08;;;18.05;;
44636;SDS011;30343;0.000;0.000;2022-08-19T01:16:43;20.13;;;17.17;;
44636;SDS011;30343;0.000;0.000;2022-08-19T01:19:33;18.13;;;16.25;;
44636;SDS011;30343;0.000;0.000;2022-08-19T01:25:13;18.05;;;16.13;;
44636;SDS011;30343;0.000;0.000;2022-08-19T01:27:59;18.33;;;15.20;;
44636;SDS011;30343;0.000;0.000;2022-08-19T01:30:46;18.10;;;16.15;;
44636;SDS011;30343;0.000;0.000;2022-08-19T01:33:30;17.20;;;15.50;;
44636;SDS011;30343;0.000;0.000;2022-08-19T01:36:38;19.05;;;16.77;;
44636;SDS011;30343;0.000;0.000;2022-08-19T01:39:25;17.80;;;15.90;;
44636;SDS011;30343;0.000;0.000;2022-08-19T01:42:10;19.75;;;17.63;;
44636;SDS011;30343;0.000;0.000;2022-08-19T01:44:55;19.27;;;17.30;;
44636;SDS011;30343;0.000;0.000;2022-08-19T01:47:39;19.40;;;17.35;;
44636;SDS011;30343;0.000;0.000;2022-08-19T01:50:24;18.83;;;16.80;;
44636;SDS011;30343;0.000;0.000;2022-08-19T01:53:10;23.10;;;18.90;;
44636;SDS011;30343;0.000;0.000;2022-08-19T01:55:58;19.50;;;17.08;;
44636;SDS011;30343;0.000;0.000;2022-08-19T01:58:55;19.27;;;17.17;;
44636;SDS011;30343;0.000;0.000;2022-08-19T02:01:44;20.23;;;17.80;;
44636;SDS011;30343;0.000;0.000;2022-08-19T02:04:28;20.05;;;17.95;;
44636;SDS011;30343;0.000;0.000;2022-08-19T02:07:12;21.08;;;18.98;;
44636;SDS011;30343;0.000;0.000;2022-08-19T02:09:56;21.98;;;18.60;;
44636;SDS011;30343;0.000;0.000;2022-08-19T02:12:41;20.05;;;17.92;;
44636;SDS011;30343;0.000;0.000;2022-08-19T02:15:28;24.73;;;21.20;;
44636;SDS011;30343;0.000;0.000;2022-08-19T02:18:12;21.20;;;19.05;;
44636;SDS011;30343;0.000;0.000;2022-08-19T02:20:57;21.60;;;19.38;;
44636;SDS011;30343;0.000;0.000;2022-08-19T02:23:43;21.58;;;19.13;;
44636;SDS011;30343;0.000;0.000;2022-08-19T02:26:28;23.40;;;20.20;;
44636;SDS011;30343;0.000;0.000;2022-08-19T02:29:15;20.77;;;18.58;;
44636;SDS011;30343;0.000;0.000;2022-08-19T02:31:59;22.95;;;20.38;;
44636;SDS011;30343;0.000;0.000;2022-08-19T02:34:48;22.58;;;20.17;;
44636;SDS011;30343;0.000;0.000;2022-08-19T02:37:38;21.25;;;18.95;;
44636;SDS011;30343;0.000;0.000;2022-08-19T02:40:41;23.50;;;19.50;;
44636;SDS011;30343;0.000;0.000;2022-08-19T02:43:35;23.33;;;20.83;;
44636;SDS011;30343;0.000;0.000;2022-08-19T02:46:21;24.95;;;20.25;;
44636;SDS011;30343;0.000;0.000;2022-08-19T02:49:08;22.00;;;19.58;;
44636;SDS011;30343;0.000;0.000;2022-08-19T02:51:55;23.80;;;21.23;;
44636;SDS011;30343;0.000;0.000;2022-08-19T02:54:39;26.80;;;21.08;;
44636;SDS011;30343;0.000;0.000;2022-08-19T02:57:25;28.05;;;21.13;;
44636;SDS011;30343;0.000;0.000;2022-08-19T03:00:10;24.38;;;20.60;;
44636;SDS011;30343;0.000;0.000;2022-08-19T03:02:57;26.50;;;22.35;;
44636;SDS011;30343;0.000;0.000;2022-08-19T03:05:47;28.13;;;22.23;;
44636;SDS011;30343;0.000;0.000;2022-08-19T03:08:36;24.67;;;21.08;;
44636;SDS011;30343;0.000;0.000;2022-08-19T03:11:22;27.42;;;23.05;;
44636;SDS011;30343;0.000;0.000;2022-08-19T03:14:09;27.42;;;21.88;;
44636;SDS011;30343;0.000;0.000;2022-08-19T03:16:53;26.38;;;21.60;;
44636;SDS011;30343;0.000;0.000;2022-08-19T03:19:41;26.92;;;23.13;;
44636;SDS011;30343;0.000;0.000;2022-08-19T03:22:29;26.25;;;23.40;;
44636;SDS011;30343;0.000;0.000;2022-08-19T03:25:13;28.75;;;22.80;;
44636;SDS011;30343;0.000;0.000;2022-08-19T03:28:02;24.80;;;22.10;;
44636;SDS011;30343;0.000;0.000;2022-08-19T03:30:57;25.05;;;22.35;;
44636;SDS011;30343;0.000;0.000;2022-08-19T03:33:43;26.48;;;22.55;;
44636;SDS011;30343;0.000;0.000;2022-08-19T03:36:27;28.10;;;23.33;;
44636;SDS011;30343;0.000;0.000;2022-08-19T03:39:14;26.75;;;23.05;;
44636;SDS011;30343;0.000;0.000;2022-08-19T03:42:01;27.35;;;23.52;;
44636;SDS011;30343;0.000;0.000;2022-08-19T03:44:46;27.55;;;24.27;;
44636;SDS011;30343;0.000;0.000;2022-08-19T03:47:30;27.88;;;23.05;;
44636;SDS011;30343;0.000;0.000;2022-08-19T03:50:19;27.25;;;24.20;;
44636;SDS011;30343;0.000;0.000;2022-08-19T03:53:09;30.55;;;24.48;;
44636;SDS011;30343;0.000;0.000;2022-08-19T03:55:59;29.73;;;24.75;;
44636;SDS011;30343;0.000;0.000;2022-08-19T03:58:48;28.30;;;23.52;;
44636;SDS011;30343;0.000;0.000;2022-08-19T04:01:35;31.05;;;26.13;;
44636;SDS011;30343;0.000;0.000;2022-08-19T04:04:22;29.77;;;24.88;;
44636;SDS011;30343;0.000;0.000;2022-08-19T04:07:07;31.48;;;24.85;;
44636;SDS011;30343;0.000;0.000;2022-08-19T04:09:54;34.05;;;25.73;;
44636;SDS011;30343;0.000;0.000;2022-08-19T04:12:44;30.75;;;26.58;;
44636;SDS011;30343;0.000;0.000;2022-08-19T04:15:31;30.98;;;25.23;;
44636;SDS011;30343;0.000;0.000;2022-08-19T04:18:23;36.72;;;27.50;;
44636;SDS011;30343;0.000;0.000;2022-08-19T04:21:07;31.23;;;24.85;;
44636;SDS011;30343;0.000;0.000;2022-08-19T04:23:52;29.52;;;25.25;;
44636;SDS011;30343;0.000;0.000;2022-08-19T04:26:46;33.30;;;25.73;;
44636;SDS011;30343;0.000;0.000;2022-08-19T04:29:36;35.88;;;27.15;;
44636;SDS011;30343;0.000;0.000;2022-08-19T04:32:28;35.38;;;27.60;;
44636;SDS011;30343;0.000;0.000;2022-08-19T04:35:26;37.08;;;28.38;;
44636;SDS011;30343;0.000;0.000;2022-08-19T04:38:11;38.85;;;29.73;;
44636;SDS011;30343;0.000;0.000;2022-08-19T04:41:02;34.72;;;26.92;;
44636;SDS011;30343;0.000;0.000;2022-08-19T04:46:55;39.40;;;29.50;;
44636;SDS011;30343;0.000;0.000;2022-08-19T04:49:46;39.90;;;27.90;;
44636;SDS011;30343;0.000;0.000;2022-08-19T04:52:33;35.97;;;28.15;;
44636;SDS011;30343;0.000;0.000;2022-08-19T04:55:17;37.22;;;28.77;;
44636;SDS011;30343;0.000;0.000;2022-08-19T04:58:04;33.95;;;27.27;;
44636;SDS011;30343;0.000;0.000;2022-08-19T05:00:54;36.83;;;29.15;;
44636;SDS011;30343;0.000;0.000;2022-08-19T05:03:41;38.92;;;30.38;;
44636;SDS011;30343;0.000;0.000;2022-08-19T05:06:26;39.72;;;30.20;;
44636;SDS011;30343;0.000;0.000;2022-08-19T05:09:16;39.38;;;30.48;;
44636;SDS011;30343;0.000;0.000;2022-08-19T05:12:00;39.38;;;30.40;;
44636;SDS011;30343;0.000;0.000;2022-08-19T05:14:45;38.97;;;30.42;;
44636;SDS011;30343;0.000;0.000;2022-08-19T05:17:30;36.78;;;29.17;;
44636;SDS011;30343;0.000;0.000;2022-08-19T05:20:17;37.17;;;29.95;;
44636;SDS011;30343;0.000;0.000;2022-08-19T05:23:19;39.67;;;29.02;;
44636;SDS011;30343;0.000;0.000;2022-08-19T05:26:06;39.50;;;29.42;;
44636;SDS011;30343;0.000;0.000;2022-08-19T05:28:52;37.97;;;29.10;;
44636;SDS011;30343;0.000;0.000;2022-08-19T05:31:37;37.00;;;28.83;;
44636;SDS011;30343;0.000;0.000;2022-08-19T05:34:22;40.38;;;30.17;;
44636;SDS011;30343;0.000;0.000;2022-08-19T05:37:10;38.67;;;29.08;;
44636;SDS011;30343;0.000;0.000;2022-08-19T05:39:54;39.17;;;30.25;;
44636;SDS011;30343;0.000;0.000;2022-08-19T05:42:39;35.45;;;28.55;;
44636;SDS011;30343;0.000;0.000;2022-08-19T05:45:26;35.03;;;27.60;;
44636;SDS011;30343;0.000;0.000;2022-08-19T05:48:15;36.38;;;28.58;;
44636;SDS011;30343;0.000;0.000;2022-08-19T05:51:04;37.75;;;30.10;;
44636;SDS011;30343;0.000;0.000;2022-08-19T05:53:50;33.95;;;27.50;;
44636;SDS011;30343;0.000;0.000;2022-08-19T05:56:35;39.97;;;30.40;;
44636;SDS011;30343;0.000;0.000;2022-08-19T05:59:22;39.72;;;29.80;;
44636;SDS011;30343;0.000;0.000;2022-08-19T06:02:07;37.70;;;29.48;;
44636;SDS011;30343;0.000;0.000;2022-08-19T06:04:54;39.50;;;30.30;;
44636;SDS011;30343;0.000;0.000;2022-08-19T06:07:39;36.35;;;28.77;;
44636;SDS011;30343;0.000;0.000;2022-08-19T06:10:23;39.45;;;29.20;;
44636;SDS011;30343;0.000;0.000;2022-08-19T06:13:07;32.35;;;25.77;;
44636;SDS011;30343;0.000;0.000;2022-08-19T06:15:51;39.45;;;28.27;;
44636;SDS011;30343;0.000;0.000;2022-08-19T06:18:35;37.42;;;27.75;;
44636;SDS011;30343;0.000;0.000;2022-08-19T06:21:22;41.97;;;27.55;;
44636;SDS011;30343;0.000;0.000;2022-08-19T06:24:08;34.90;;;26.70;;
44636;SDS011;30343;0.000;0.000;2022-08-19T06:26:55;33.72;;;25.35;;
44636;SDS011;30343;0.000;0.000;2022-08-19T06:29:40;40.22;;;27.85;;
44636;SDS011;30343;0.000;0.000;2022-08-19T06:32:25;37.05;;;26.83;;
44636;SDS011;30343;0.000;0.000;2022-08-19T06:35:09;33.80;;;25.50;;
44636;SDS011;30343;0.000;0.000;2022-08-19T06:37:58;30.85;;;24.45;;
44636;SDS011;30343;0.000;0.000;2022-08-19T06:40:42;39.30;;;26.48;;
44636;SDS011;30343;0.000;0.000;2022-08-19T06:43:29;36.83;;;27.58;;
44636;SDS011;30343;0.000;0.000;2022-08-19T06:46:20;34.17;;;24.85;;
44636;SDS011;30343;0.000;0.000;2022-08-19T06:49:05;38.25;;;24.48;;
44636;SDS011;30343;0.000;0.000;2022-08-19T06:51:50;30.92;;;23.65;;
44636;SDS011;30343;0.000;0.000;2022-08-19T06:54:34;33.13;;;24.50;;
44636;SDS011;30343;0.000;0.000;2022-08-19T06:57:20;30.83;;;22.27;;
44636;SDS011;30343;0.000;0.000;2022-08-19T07:00:05;32.38;;;25.50;;
44636;SDS011;30343;0.000;0.000;2022-08-19T07:03:00;31.05;;;23.55;;
44636;SDS011;30343;0.000;0.000;2022-08-19T07:05:44;32.25;;;23.92;;
44636;SDS011;30343;0.000;0.000;2022-08-19T07:08:28;34.90;;;24.77;;
44636;SDS011;30343;0.000;0.000;2022-08-19T07:11:17;36.13;;;23.90;;
44636;SDS011;30343;0.000;0.000;2022-08-19T07:14:02;34.60;;;25.08;;
44636;SDS011;30343;0.000;0.000;2022-08-19T07:19:32;35.78;;;25.23;;
44636;SDS011;30343;0.000;0.000;2022-08-19T07:22:18;31.02;;;23.90;;
44636;SDS011;30343;0.000;0.000;2022-08-19T07:25:04;32.08;;;23.80;;
44636;SDS011;30343;0.000;0.000;2022-08-19T07:27:49;30.48;;;24.48;;
44636;SDS011;30343;0.000;0.000;2022-08-19T07:30:39;30.63;;;22.60;;
44636;SDS011;30343;0.000;0.000;2022-08-19T07:33:27;32.63;;;24.40;;
44636;SDS011;30343;0.000;0.000;2022-08-19T07:36:15;32.08;;;23.60;;
44636;SDS011;30343;0.000;0.000;2022-08-19T07:39:05;33.45;;;23.35;;
44636;SDS011;30343;0.000;0.000;2022-08-19T07:41:57;37.65;;;25.13;;
44636;SDS011;30343;0.000;0.000;2022-08-19T07:44:45;33.92;;;23.42;;
44636;SDS011;30343;0.000;0.000;2022-08-19T07:47:35;35.45;;;25.90;;
44636;SDS011;30343;0.000;0.000;2022-08-19T07:50:26;38.00;;;26.30;;
44636;SDS011;30343;0.000;0.000;2022-08-19T07:53:13;35.20;;;24.25;;
44636;SDS011;30343;0.000;0.000;2022-08-19T07:56:03;36.72;;;25.20;;
44636;SDS011;30343;0.000;0.000;2022-08-19T07:58:49;37.97;;;27.10;;
44636;SDS011;30343;0.000;0.000;2022-08-19T08:01:39;33.65;;;25.15;;
44636;SDS011;30343;0.000;0.000;2022-08-19T08:04:27;40.42;;;25.50;;
44636;SDS011;30343;0.000;0.000;2022-08-19T08:07:33;33.20;;;23.95;;
44636;SDS011;30343;0.000;0.000;2022-08-19T08:10:36;33.65;;;22.52;;
44636;SDS011;30343;0.000;0.000;2022-08-19T08:13:26;36.03;;;24.00;;
44636;SDS011;30343;0.000;0.000;2022-08-19T08:16:11;33.40;;;23.33;;
44636;SDS011;30343;0.000;0.000;2022-08-19T08:18:55;38.35;;;25.25;;
44636;SDS011;30343;0.000;0.000;2022-08-19T08:21:38;32.95;;;23.70;;
44636;SDS011;30343;0.000;0.000;2022-08-19T08:24:29;43.70;;;25.30;;
44636;SDS011;30343;0.000;0.000;2022-08-19T08:27:14;33.35;;;23.75;;
44636;SDS011;30343;0.000;0.000;2022-08-19T08:30:02;35.50;;;24.75;;
44636;SDS011;30343;0.000;0.000;2022-08-19T08:32:49;36.95;;;24.17;;
44636;SDS011;30343;0.000;0.000;2022-08-19T08:35:35;32.70;;;22.92;;
44636;SDS011;30343;0.000;0.000;2022-08-19T08:38:19;38.33;;;25.55;;
44636;SDS011;30343;0.000;0.000;2022-08-19T08:41:06;36.15;;;25.20;;
44636;SDS011;30343;0.000;0.000;2022-08-19T08:43:57;37.65;;;25.08;;
44636;SDS011;30343;0.000;0.000;2022-08-19T08:46:47;38.28;;;25.95;;
44636;SDS011;30343;0.000;0.000;2022-08-19T08:49:38;36.78;;;25.95;;
44636;SDS011;30343;0.000;0.000;2022-08-19T08:52:44;40.25;;;27.42;;
44636;SDS011;30343;0.000;0.000;2022-08-19T08:55:29;37.80;;;25.73;;
44636;SDS011;30343;0.000;0.000;2022-08-19T08:58:25;38.38;;;25.02;;
44636;SDS011;30343;0.000;0.000;2022-08-19T09:01:15;33.50;;;23.17;;
44636;SDS011;30343;0.000;0.000;2022-08-19T09:04:04;34.95;;;24.50;;
44636;SDS011;30343;0.000;0.000;2022-08-19T09:09:38;36.72;;;24.98;;
44636;SDS011;30343;0.000;0.000;2022-08-19T09:12:30;36.50;;;24.83;;
44636;SDS011;30343;0.000;0.000;2022-08-19T09:15:25;34.13;;;25.60;;
44636;SDS011;30343;0.000;0.000;2022-08-19T09:18:15;37.30;;;23.67;;
44636;SDS011;30343;0.000;0.000;2022-08-19T09:21:02;33.25;;;23.33;;
44636;SDS011;30343;0.000;0.000;2022-08-19T09:23:46;31.33;;;21.80;;
44636;SDS011;30343;0.000;0.000;2022-08-19T09:26:31;28.13;;;19.45;;
44636;SDS011;30343;0.000;0.000;2022-08-19T09:29:16;34.03;;;21.00;;
44636;SDS011;30343;0.000;0.000;2022-08-19T09:32:00;27.48;;;19.52;;
44636;SDS011;30343;0.000;0.000;2022-08-19T09:34:43;27.65;;;20.67;;
44636;SDS011;30343;0.000;0.000;2022-08-19T09:37:28;29.02;;;19.70;;
44636;SDS011;30343;0.000;0.000;2022-08-19T09:40:16;29.25;;;20.33;;
44636;SDS011;30343;0.000;0.000;2022-08-19T09:43:01;28.05;;;20.10;;
44636;SDS011;30343;0.000;0.000;2022-08-19T09:45:47;30.63;;;19.60;;
44636;SDS011;30343;0.000;0.000;2022-08-19T09:48:32;27.98;;;18.95;;
44636;SDS011;30343;0.000;0.000;2022-08-19T09:51:24;24.88;;;19.58;;
44636;SDS011;30343;0.000;0.000;2022-08-19T09:54:11;24.17;;;19.17;;
44636;SDS011;30343;0.000;0.000;2022-08-19T09:56:57;29.95;;;20.30;;
44636;SDS011;30343;0.000;0.000;2022-08-19T09:59:43;25.10;;;18.38;;
44636;SDS011;30343;0.000;0.000;2022-08-19T10:02:32;26.13;;;16.90;;
44636;SDS011;30343;0.000;0.000;2022-08-19T10:05:19;23.08;;;16.17;;
44636;SDS011;30343;0.000;0.000;2022-08-19T10:08:24;38.00;;;19.83;;
44636;SDS011;30343;0.000;0.000;2022-08-19T10:11:13;37.72;;;17.60;;
44636;SDS011;30343;0.000;0.000;2022-08-19T10:14:03;25.00;;;15.95;;
44636;SDS011;30343;0.000;0.000;2022-08-19T10:16:50;22.88;;;14.23;;
44636;SDS011;30343;0.000;0.000;2022-08-19T10:19:35;25.95;;;15.07;;
44636;SDS011;30343;0.000;0.000;2022-08-19T10:22:22;19.45;;;14.82;;
44636;SDS011;30343;0.000;0.000;2022-08-19T10:25:10;19.15;;;13.55;;
44636;SDS011;30343;0.000;0.000;2022-08-19T10:28:00;22.67;;;12.80;;
44636;SDS011;30343;0.000;0.000;2022-08-19T10:30:44;18.67;;;12.73;;
44636;SDS011;30343;0.000;0.000;2022-08-19T10:33:30;21.52;;;12.35;;
44636;SDS011;30343;0.000;0.000;2022-08-19T10:36:18;15.02;;;10.02;;
44636;SDS011;30343;0.000;0.000;2022-08-19T10:39:06;13.30;;;9.65;;
44636;SDS011;30343;0.000;0.000;2022-08-19T10:41:56;15.23;;;9.48;;
44636;SDS011;30343;0.000;0.000;2022-08-19T10:44:46;17.48;;;9.85;;
44636;SDS011;30343;0.000;0.000;2022-08-19T10:47:35;11.13;;;7.88;;
44636;SDS011;30343;0.000;0.000;2022-08-19T10:50:22;12.00;;;8.43;;
44636;SDS011;30343;0.000;0.000;2022-08-19T10:53:25;12.07;;;8.43;;
44636;SDS011;30343;0.000;0.000;2022-08-19T10:56:15;10.80;;;7.47;;
44636;SDS011;30343;0.000;0.000;2022-08-19T10:59:19;10.35;;;7.43;;
44636;SDS011;30343;0.000;0.000;2022-08-19T11:02:11;11.13;;;7.13;;
44636;SDS011;30343;0.000;0.000;2022-08-19T11:05:00;8.98;;;6.85;;
44636;SDS011;30343;0.000;0.000;2022-08-19T11:07:44;13.68;;;7.82;;
44636;SDS011;30343;0.000;0.000;2022-08-19T11:10:34;10.82;;;7.00;;
44636;SDS011;30343;0.000;0.000;2022-08-19T11:13:19;11.30;;;6.10;;
44636;SDS011;30343;0.000;0.000;2022-08-19T11:16:11;8.38;;;6.15;;
44636;SDS011;30343;0.000;0.000;2022-08-19T11:18:58;8.77;;;5.95;;
44636;SDS011;30343;0.000;0.000;2022-08-19T11:21:44;9.65;;;6.22;;
44636;SDS011;30343;0.000;0.000;2022-08-19T11:24:29;8.95;;;6.03;;
44636;SDS011;30343;0.000;0.000;2022-08-19T11:27:16;8.73;;;5.72;;
44636;SDS011;30343;0.000;0.000;2022-08-19T11:32:49;7.28;;;5.10;;
44636;SDS011;30343;0.000;0.000;2022-08-19T11:35:33;7.65;;;5.60;;
44636;SDS011;30343;0.000;0.000;2022-08-19T11:38:23;7.88;;;5.43;;
44636;SDS011;30343;0.000;0.000;2022-08-19T11:41:11;10.82;;;5.35;;
44636;SDS011;30343;0.000;0.000;2022-08-19T11:43:55;7.07;;;5.53;;
44636;SDS011;30343;0.000;0.000;2022-08-19T11:46:45;8.88;;;5.95;;
44636;SDS011;30343;0.000;0.000;2022-08-19T11:49:36;7.78;;;5.15;;
44636;SDS011;30343;0.000;0.000;2022-08-19T11:52:20;8.65;;;5.40;;
44636;SDS011;30343;0.000;0.000;2022-08-19T11:55:04;14.95;;;6.85;;
44636;SDS011;30343;0.000;0.000;2022-08-19T11:57:51;8.48;;;5.75;;
44636;SDS011;30343;0.000;0.000;2022-08-19T12:00:38;8.23;;;5.25;;
44636;SDS011;30343;0.000;0.000;2022-08-19T12:03:22;10.32;;;5.60;;
44636;SDS011;30343;0.000;0.000;2022-08-19T12:06:08;10.85;;;5.72;;
44636;SDS011;30343;0.000;0.000;2022-08-19T12:08:56;7.10;;;5.45;;
44636;SDS011;30343;0.000;0.000;2022-08-19T12:11:41;8.75;;;5.82;;
44636;SDS011;30343;0.000;0.000;2022-08-19T12:14:30;7.60;;;5.20;;
44636;SDS011;30343;0.000;0.000;2022-08-19T12:17:17;8.15;;;5.03;;
44636;SDS011;30343;0.000;0.000;2022-08-19T12:20:09;7.55;;;4.85;;
44636;SDS011;30343;0.000;0.000;2022-08-19T12:22:56;9.40;;;5.18;;
44636;SDS011;30343;0.000;0.000;2022-08-19T12:25:47;7.85;;;5.43;;
44636;SDS011;30343;0.000;0.000;2022-08-19T12:28:35;6.70;;;4.50;;
44636;SDS011;30343;0.000;0.000;2022-08-19T12:31:19;9.82;;;4.82;;
44636;SDS011;30343;0.000;0.000;2022-08-19T12:34:06;9.57;;;5.10;;
44636;SDS011;30343;0.000;0.000;2022-08-19T12:36:56;6.32;;;4.28;;
44636;SDS011;30343;0.000;0.000;2022-08-19T12:39:42;6.40;;;5.07;;
44636;SDS011;30343;0.000;0.000;2022-08-19T12:42:26;6.63;;;4.47;;
44636;SDS011;30343;0.000;0.000;2022-08-19T12:45:10;5.97;;;4.30;;
44636;SDS011;30343;0.000;0.000;2022-08-19T12:47:59;6.38;;;4.30;;
44636;SDS011;30343;0.000;0.000;2022-08-19T12:50:45;5.97;;;4.25;;
44636;SDS011;30343;0.000;0.000;2022-08-19T12:53:41;12.60;;;3.67;;
44636;SDS011;30343;0.000;0.000;2022-08-19T12:56:31;7.93;;;4.53;;
44636;SDS011;30343;0.000;0.000;2022-08-19T12:59:16;5.15;;;3.90;;
44636;SDS011;30343;0.000;0.000;2022-08-19T13:02:08;6.25;;;4.20;;
44636;SDS011;30343;0.000;0.000;2022-08-19T13:04:58;5.60;;;3.55;;
44636;SDS011;30343;0.000;0.000;2022-08-19T13:07:42;6.85;;;4.38;;
44636;SDS011;30343;0.000;0.000;2022-08-19T13:10:31;6.30;;;4.20;;
44636;SDS011;30343;0.000;0.000;2022-08-19T13:13:20;5.47;;;3.63;;
44636;SDS011;30343;0.000;0.000;2022-08-19T13:16:05;6.45;;;3.50;;
44636;SDS011;30343;0.000;0.000;2022-08-19T13:18:50;6.90;;;3.20;;
44636;SDS011;30343;0.000;0.000;2022-08-19T13:21:37;4.53;;;3.88;;
44636;SDS011;30343;0.000;0.000;2022-08-19T13:24:21;5.45;;;3.83;;
44636;SDS011;30343;0.000;0.000;2022-08-19T13:27:04;5.53;;;3.90;;
44636;SDS011;30343;0.000;0.000;2022-08-19T13:29:49;6.03;;;4.40;;
44636;SDS011;30343;0.000;0.000;2022-08-19T13:32:52;5.35;;;3.90;;
44636;SDS011;30343;0.000;0.000;2022-08-19T13:35:58;6.38;;;4.18;;
44636;SDS011;30343;0.000;0.000;2022-08-19T13:38:43;5.85;;;3.90;;
44636;SDS011;30343;0.000;0.000;2022-08-19T13:41:28;6.35;;;3.75;;
44636;SDS011;30343;0.000;0.000;2022-08-19T13:44:12;7.35;;;3.65;;
44636;SDS011;30343;0.000;0.000;2022-08-19T13:47:03;5.90;;;3.42;;
44636;SDS011;30343;0.000;0.000;2022-08-19T13:49:53;6.20;;;3.72;;
44636;SDS011;30343;0.000;0.000;2022-08-19T13:52:40;5.80;;;3.88;;
44636;SDS011;30343;0.000;0.000;2022-08-19T13:55:25;5.90;;;4.35;;
44636;SDS011;30343;0.000;0.000;2022-08-19T13:58:10;5.85;;;3.78;;
44636;SDS011;30343;0.000;0.000;2022-08-19T14:00:55;6.05;;;3.60;;
44636;SDS011;30343;0.000;0.000;2022-08-19T14:03:39;5.40;;;4.05;;
44636;SDS011;30343;0.000;0.000;2022-08-19T14:06:22;7.95;;;4.22;;
44636;SDS011;30343;0.000;0.000;2022-08-19T14:09:09;6.80;;;4.18;;
44636;SDS011;30343;0.000;0.000;2022-08-19T14:11:53;7.15;;;4.13;;
44636;SDS011;30343;0.000;0.000;2022-08-19T14:14:37;5.97;;;3.95;;
44636;SDS011;30343;0.000;0.000;2022-08-19T14:17:22;4.97;;;3.90;;
44636;SDS011;30343;0.000;0.000;2022-08-19T14:20:07;6.40;;;3.75;;
44636;SDS011;30343;0.000;0.000;2022-08-19T14:22:53;6.10;;;3.60;;
44636;SDS011;30343;0.000;0.000;2022-08-19T14:25:38;7.13;;;4.35;;
44636;SDS011;30343;0.000;0.000;2022-08-19T14:28:23;4.70;;;3.67;;
44636;SDS011;30343;0.000;0.000;2022-08-19T14:31:10;5.88;;;3.65;;
44636;SDS011;30343;0.000;0.000;2022-08-19T14:34:02;5.47;;;4.03;;
44636;SDS011;30343;0.000;0.000;2022-08-19T14:36:48;6.13;;;4.00;;
44636;SDS011;30343;0.000;0.000;2022-08-19T14:39:38;5.22;;;3.20;;
44636;SDS011;30343;0.000;0.000;2022-08-19T14:42:25;6.72;;;3.78;;
44636;SDS011;30343;0.000;0.000;2022-08-19T14:45:10;5.63;;;3.47;;
44636;SDS011;30343;0.000;0.000;2022-08-19T14:48:01;6.75;;;3.63;;
44636;SDS011;30343;0.000;0.000;2022-08-19T14:50:48;3.88;;;3.17;;
44636;SDS011;30343;0.000;0.000;2022-08-19T14:53:35;5.65;;;3.75;;
44636;SDS011;30343;0.000;0.000;2022-08-19T14:56:21;4.43;;;2.65;;
44636;SDS011;30343;0.000;0.000;2022-08-19T14:59:14;5.00;;;3.08;;
44636;SDS011;30343;0.000;0.000;2022-08-19T15:02:01;4.78;;;3.13;;
44636;SDS011;30343;0.000;0.000;2022-08-19T15:04:56;4.22;;;2.80;;
44636;SDS011;30343;0.000;0.000;2022-08-19T15:07:40;4.15;;;2.63;;
44636;SDS011;30343;0.000;0.000;2022-08-19T15:10:26;3.30;;;2.72;;
44636;SDS011;30343;0.000;0.000;2022-08-19T15:13:16;9.05;;;3.35;;
44636;SDS011;30343;0.000;0.000;2022-08-19T15:16:00;3.90;;;2.63;;
44636;SDS011;30343;0.000;0.000;2022-08-19T15:18:46;3.92;;;2.97;;
44636;SDS011;30343;0.000;0.000;2022-08-19T15:21:34;4.25;;;2.63;;
44636;SDS011;30343;0.000;0.000;2022-08-19T15:24:17;5.13;;;2.90;;
44636;SDS011;30343;0.000;0.000;2022-08-19T15:27:06;4.35;;;3.05;;
44636;SDS011;30343;0.000;0.000;2022-08-19T15:29:56;4.32;;;3.10;;
44636;SDS011;30343;0.000;0.000;2022-08-19T15:32:40;4.13;;;2.50;;
44636;SDS011;30343;0.000;0.000;2022-08-19T15:35:24;3.40;;;2.75;;
44636;SDS011;30343;0.000;0.000;2022-08-19T15:38:09;4.15;;;2.72;;
44636;SDS011;30343;0.000;0.000;2022-08-19T15:40:56;4.75;;;2.60;;
44636;SDS011;30343;0.000;0.000;2022-08-19T15:44:05;3.22;;;2.30;;
44636;SDS011;30343;0.000;0.000;2022-08-19T15:49:38;3.67;;;2.78;;
44636;SDS011;30343;0.000;0.000;2022-08-19T15:52:23;3.67;;;2.50;;
44636;SDS011;30343;0.000;0.000;2022-08-19T15:55:09;3.75;;;2.90;;
44636;SDS011;30343;0.000;0.000;2022-08-19T15:58:08;3.70;;;3.17;;
44636;SDS011;30343;0.000;0.000;2022-08-19T16:01:15;5.40;;;2.85;;
44636;SDS011;30343;0.000;0.000;2022-08-19T16:04:21;4.18;;;3.00;;
44636;SDS011;30343;0.000;0.000;2022-08-19T16:07:24;3.00;;;2.67;;
44636;SDS011;30343;0.000;0.000;2022-08-19T16:10:17;3.72;;;3.20;;
44636;SDS011;30343;0.000;0.000;2022-08-19T16:13:12;3.53;;;2.60;;
44636;SDS011;30343;0.000;0.000;2022-08-19T16:16:00;4.47;;;3.08;;
44636;SDS011;30343;0.000;0.000;2022-08-19T16:18:49;3.50;;;3.00;;
44636;SDS011;30343;0.000;0.000;2022-08-19T16:21:38;3.47;;;3.03;;
44636;SDS011;30343;0.000;0.000;2022-08-19T16:24:23;4.03;;;3.00;;
44636;SDS011;30343;0.000;0.000;2022-08-19T16:27:09;5.70;;;3.03;;
44636;SDS011;30343;0.000;0.000;2022-08-19T16:29:54;4.43;;;3.13;;
44636;SDS011;30343;0.000;0.000;2022-08-19T16:32:41;3.28;;;2.70;;
44636;SDS011;30343;0.000;0.000;2022-08-19T16:35:26;3.33;;;2.80;;
44636;SDS011;30343;0.000;0.000;2022-08-19T16:38:13;5.93;;;3.33;;
44636;SDS011;30343;0.000;0.000;2022-08-19T16:43:44;4.65;;;2.50;;
44636;SDS011;30343;0.000;0.000;2022-08-19T16:46:28;8.57;;;3.65;;
44636;SDS011;30343;0.000;0.000;2022-08-19T16:49:13;11.52;;;3.58;;
44636;SDS011;30343;0.000;0.000;2022-08-19T16:52:00;6.10;;;3.17;;
44636;SDS011;30343;0.000;0.000;2022-08-19T16:54:45;7.93;;;3.60;;
44636;SDS011;30343;0.000;0.000;2022-08-19T16:57:38;7.63;;;3.83;;
44636;SDS011;30343;0.000;0.000;2022-08-19T17:00:38;5.25;;;2.60;;
44636;SDS011;30343;0.000;0.000;2022-08-19T17:03:30;6.72;;;2.55;;
44636;SDS011;30343;0.000;0.000;2022-08-19T17:06:23;11.85;;;3.63;;